sensor_id;sensor_type;location;lat;lon;timestamp;P1;durP1;ratioP1;P2;durP2;ratioP2
13147;SDS011;6639;50.956;4.242;2022-08-11T00:01:38;4.50;;;2.55;;
13147;SDS011;6639;50.956;4.242;2022-08-11T00:04:10;2.55;;;2.35;;
13147;SDS011;6639;50.956;4.242;2022-08-11T00:06:38;4.93;;;2.80;;
13147;SDS011;6639;50.956;4.242;2022-08-11T00:09:07;2.95;;;2.67;;
13147;SDS011;6639;50.956;4.242;2022-08-11T00:11:37;4.05;;;2.67;;
13147;SDS011;6639;50.956;4.242;2022-08-11T00:14:12;2.40;;;2.20;;
13147;SDS011;6639;50.956;4.242;2022-08-11T00:16:43;3.05;;;2.45;;
13147;SDS011;6639;50.956;4.242;2022-08-11T00:19:20;2.50;;;2.30;;
13147;SDS011;6639;50.956;4.242;2022-08-11T00:21:48;4.35;;;2.70;;
13147;SDS011;6639;50.956;4.242;2022-08-11T00:24:16;3.00;;;2.70;;
13147;SDS011;6639;50.956;4.242;2022-08-11T00:26:46;4.07;;;2.47;;
13147;SDS011;6639;50.956;4.242;2022-08-11T00:29:14;2.90;;;2.65;;
13147;SDS011;6639;50.956;4.242;2022-08-11T00:31:44;3.35;;;2.40;;
13147;SDS011;6639;50.956;4.242;2022-08-11T00:34:14;2.85;;;2.60;;
13147;SDS011;6639;50.956;4.242;2022-08-11T00:36:46;2.72;;;2.53;;
13147;SDS011;6639;50.956;4.242;2022-08-11T00:39:16;3.00;;;2.70;;
13147;SDS011;6639;50.956;4.242;2022-08-11T00:41:54;2.72;;;2.53;;
13147;SDS011;6639;50.956;4.242;2022-08-11T00:44:35;3.58;;;3.20;;
13147;SDS011;6639;50.956;4.242;2022-08-11T00:47:13;3.13;;;2.90;;
13147;SDS011;6639;50.956;4.242;2022-08-11T00:49:51;3.67;;;3.10;;
13147;SDS011;6639;50.956;4.242;2022-08-11T00:55:38;5.40;;;2.90;;
13147;SDS011;6639;50.956;4.242;2022-08-11T01:01:47;3.75;;;2.88;;
13147;SDS011;6639;50.956;4.242;2022-08-11T01:07:31;4.10;;;2.97;;
13147;SDS011;6639;50.956;4.242;2022-08-11T01:10:40;3.22;;;2.72;;
13147;SDS011;6639;50.956;4.242;2022-08-11T01:13:18;5.43;;;3.20;;
13147;SDS011;6639;50.956;4.242;2022-08-11T01:16:12;3.60;;;3.30;;
13147;SDS011;6639;50.956;4.242;2022-08-11T01:25:27;3.80;;;2.83;;
13147;SDS011;6639;50.956;4.242;2022-08-11T01:28:20;5.40;;;3.28;;
13147;SDS011;6639;50.956;4.242;2022-08-11T01:31:32;3.70;;;2.47;;
13147;SDS011;6639;50.956;4.242;2022-08-11T01:40:31;3.17;;;2.97;;
13147;SDS011;6639;50.956;4.242;2022-08-11T01:47:01;3.95;;;2.90;;
13147;SDS011;6639;50.956;4.242;2022-08-11T01:50:03;3.08;;;2.78;;
13147;SDS011;6639;50.956;4.242;2022-08-11T01:52:39;3.22;;;2.90;;
13147;SDS011;6639;50.956;4.242;2022-08-11T01:55:24;4.45;;;3.20;;
13147;SDS011;6639;50.956;4.242;2022-08-11T01:58:02;3.10;;;2.90;;
13147;SDS011;6639;50.956;4.242;2022-08-11T02:00:36;3.60;;;3.13;;
13147;SDS011;6639;50.956;4.242;2022-08-11T02:03:14;3.47;;;3.17;;
13147;SDS011;6639;50.956;4.242;2022-08-11T02:05:56;4.00;;;3.33;;
13147;SDS011;6639;50.956;4.242;2022-08-11T02:08:33;3.03;;;2.83;;
13147;SDS011;6639;50.956;4.242;2022-08-11T02:11:14;4.47;;;3.20;;
13147;SDS011;6639;50.956;4.242;2022-08-11T02:13:58;4.70;;;3.22;;
13147;SDS011;6639;50.956;4.242;2022-08-11T02:16:31;6.28;;;3.47;;
13147;SDS011;6639;50.956;4.242;2022-08-11T02:19:11;4.43;;;3.33;;
13147;SDS011;6639;50.956;4.242;2022-08-11T02:22:05;3.05;;;2.80;;
13147;SDS011;6639;50.956;4.242;2022-08-11T02:24:58;3.38;;;3.05;;
13147;SDS011;6639;50.956;4.242;2022-08-11T02:27:33;3.72;;;3.42;;
13147;SDS011;6639;50.956;4.242;2022-08-11T02:30:08;4.45;;;3.70;;
13147;SDS011;6639;50.956;4.242;2022-08-11T02:32:44;4.78;;;3.00;;
13147;SDS011;6639;50.956;4.242;2022-08-11T02:35:36;3.83;;;3.47;;
13147;SDS011;6639;50.956;4.242;2022-08-11T02:38:13;3.92;;;3.40;;
13147;SDS011;6639;50.956;4.242;2022-08-11T02:40:49;3.50;;;3.30;;
13147;SDS011;6639;50.956;4.242;2022-08-11T02:43:33;4.28;;;3.25;;
13147;SDS011;6639;50.956;4.242;2022-08-11T02:46:17;3.00;;;2.80;;
13147;SDS011;6639;50.956;4.242;2022-08-11T02:48:56;3.20;;;3.00;;
13147;SDS011;6639;50.956;4.242;2022-08-11T02:52:04;4.95;;;3.35;;
13147;SDS011;6639;50.956;4.242;2022-08-11T02:54:41;5.50;;;3.65;;
13147;SDS011;6639;50.956;4.242;2022-08-11T02:57:17;4.95;;;3.45;;
13147;SDS011;6639;50.956;4.242;2022-08-11T02:59:54;4.47;;;3.15;;
13147;SDS011;6639;50.956;4.242;2022-08-11T03:02:39;4.00;;;3.70;;
13147;SDS011;6639;50.956;4.242;2022-08-11T03:08:15;4.35;;;3.78;;
13147;SDS011;6639;50.956;4.242;2022-08-11T03:10:53;4.10;;;3.40;;
13147;SDS011;6639;50.956;4.242;2022-08-11T03:13:45;3.47;;;3.20;;
13147;SDS011;6639;50.956;4.242;2022-08-11T03:16:40;3.58;;;3.28;;
13147;SDS011;6639;50.956;4.242;2022-08-11T03:19:20;3.42;;;3.00;;
13147;SDS011;6639;50.956;4.242;2022-08-11T03:21:55;3.95;;;3.53;;
13147;SDS011;6639;50.956;4.242;2022-08-11T03:24:28;3.97;;;3.63;;
13147;SDS011;6639;50.956;4.242;2022-08-11T03:27:02;4.22;;;3.83;;
13147;SDS011;6639;50.956;4.242;2022-08-11T03:29:36;3.88;;;3.60;;
13147;SDS011;6639;50.956;4.242;2022-08-11T03:32:10;4.28;;;3.40;;
13147;SDS011;6639;50.956;4.242;2022-08-11T03:34:51;4.15;;;3.85;;
13147;SDS011;6639;50.956;4.242;2022-08-11T03:37:26;3.80;;;3.50;;
13147;SDS011;6639;50.956;4.242;2022-08-11T03:43:51;4.03;;;3.42;;
13147;SDS011;6639;50.956;4.242;2022-08-11T03:46:34;4.00;;;3.60;;
13147;SDS011;6639;50.956;4.242;2022-08-11T03:49:24;4.50;;;3.40;;
13147;SDS011;6639;50.956;4.242;2022-08-11T03:52:03;3.50;;;3.22;;
13147;SDS011;6639;50.956;4.242;2022-08-11T03:54:41;4.15;;;3.47;;
13147;SDS011;6639;50.956;4.242;2022-08-11T03:57:41;5.18;;;3.58;;
13147;SDS011;6639;50.956;4.242;2022-08-11T04:00:45;4.05;;;3.65;;
13147;SDS011;6639;50.956;4.242;2022-08-11T04:03:42;3.97;;;3.65;;
13147;SDS011;6639;50.956;4.242;2022-08-11T04:12:38;4.57;;;3.42;;
13147;SDS011;6639;50.956;4.242;2022-08-11T04:15:29;5.55;;;4.30;;
13147;SDS011;6639;50.956;4.242;2022-08-11T04:18:35;4.00;;;3.60;;
13147;SDS011;6639;50.956;4.242;2022-08-11T04:21:45;6.00;;;3.75;;
13147;SDS011;6639;50.956;4.242;2022-08-11T04:24:38;3.95;;;3.65;;
13147;SDS011;6639;50.956;4.242;2022-08-11T04:30:39;4.15;;;3.80;;
13147;SDS011;6639;50.956;4.242;2022-08-11T04:33:29;5.28;;;3.88;;
13147;SDS011;6639;50.956;4.242;2022-08-11T04:36:09;3.55;;;3.22;;
13147;SDS011;6639;50.956;4.242;2022-08-11T04:39:15;3.78;;;3.47;;
13147;SDS011;6639;50.956;4.242;2022-08-11T04:41:55;3.92;;;3.70;;
13147;SDS011;6639;50.956;4.242;2022-08-11T04:48:13;4.03;;;3.55;;
13147;SDS011;6639;50.956;4.242;2022-08-11T04:51:20;3.95;;;3.53;;
13147;SDS011;6639;50.956;4.242;2022-08-11T04:54:19;3.75;;;3.47;;
13147;SDS011;6639;50.956;4.242;2022-08-11T04:57:16;4.00;;;3.58;;
13147;SDS011;6639;50.956;4.242;2022-08-11T05:00:06;4.63;;;3.95;;
13147;SDS011;6639;50.956;4.242;2022-08-11T05:03:02;5.32;;;4.90;;
13147;SDS011;6639;50.956;4.242;2022-08-11T05:06:18;5.40;;;4.15;;
13147;SDS011;6639;50.956;4.242;2022-08-11T05:09:12;4.95;;;4.47;;
13147;SDS011;6639;50.956;4.242;2022-08-11T05:12:05;5.55;;;3.42;;
13147;SDS011;6639;50.956;4.242;2022-08-11T05:14:47;4.38;;;3.88;;
13147;SDS011;6639;50.956;4.242;2022-08-11T05:17:35;5.75;;;4.25;;
13147;SDS011;6639;50.956;4.242;2022-08-11T05:20:23;4.30;;;4.00;;
13147;SDS011;6639;50.956;4.242;2022-08-11T05:23:10;8.65;;;4.78;;
13147;SDS011;6639;50.956;4.242;2022-08-11T05:25:56;6.25;;;4.47;;
13147;SDS011;6639;50.956;4.242;2022-08-11T05:28:45;6.90;;;4.38;;
13147;SDS011;6639;50.956;4.242;2022-08-11T05:31:35;5.18;;;4.78;;
13147;SDS011;6639;50.956;4.242;2022-08-11T05:34:24;4.63;;;4.22;;
13147;SDS011;6639;50.956;4.242;2022-08-11T05:37:12;6.22;;;4.97;;
13147;SDS011;6639;50.956;4.242;2022-08-11T05:39:46;6.13;;;4.72;;
13147;SDS011;6639;50.956;4.242;2022-08-11T05:42:32;9.38;;;4.05;;
13147;SDS011;6639;50.956;4.242;2022-08-11T05:45:20;9.10;;;4.65;;
13147;SDS011;6639;50.956;4.242;2022-08-11T05:48:06;9.05;;;4.43;;
13147;SDS011;6639;50.956;4.242;2022-08-11T05:50:51;7.75;;;4.35;;
13147;SDS011;6639;50.956;4.242;2022-08-11T05:53:44;29.63;;;7.05;;
13147;SDS011;6639;50.956;4.242;2022-08-11T05:56:33;8.65;;;4.07;;
13147;SDS011;6639;50.956;4.242;2022-08-11T05:59:06;7.13;;;5.00;;
13147;SDS011;6639;50.956;4.242;2022-08-11T06:01:38;7.20;;;4.63;;
13147;SDS011;6639;50.956;4.242;2022-08-11T06:04:07;4.90;;;4.40;;
13147;SDS011;6639;50.956;4.242;2022-08-11T06:06:48;5.45;;;4.43;;
13147;SDS011;6639;50.956;4.242;2022-08-11T06:09:26;5.10;;;4.55;;
13147;SDS011;6639;50.956;4.242;2022-08-11T06:11:57;5.15;;;4.65;;
13147;SDS011;6639;50.956;4.242;2022-08-11T06:14:26;5.18;;;4.53;;
13147;SDS011;6639;50.956;4.242;2022-08-11T06:16:55;7.82;;;4.43;;
13147;SDS011;6639;50.956;4.242;2022-08-11T06:19:30;7.32;;;4.45;;
13147;SDS011;6639;50.956;4.242;2022-08-11T06:21:59;6.95;;;5.05;;
13147;SDS011;6639;50.956;4.242;2022-08-11T06:24:29;5.65;;;4.95;;
13147;SDS011;6639;50.956;4.242;2022-08-11T06:26:58;8.82;;;4.82;;
13147;SDS011;6639;50.956;4.242;2022-08-11T06:29:26;5.90;;;4.78;;
13147;SDS011;6639;50.956;4.242;2022-08-11T06:31:55;8.43;;;5.18;;
13147;SDS011;6639;50.956;4.242;2022-08-11T06:34:37;5.97;;;4.97;;
13147;SDS011;6639;50.956;4.242;2022-08-11T06:37:20;5.80;;;4.85;;
13147;SDS011;6639;50.956;4.242;2022-08-11T06:39:51;7.47;;;5.15;;
13147;SDS011;6639;50.956;4.242;2022-08-11T06:42:40;5.63;;;4.70;;
13147;SDS011;6639;50.956;4.242;2022-08-11T06:45:15;11.82;;;4.75;;
13147;SDS011;6639;50.956;4.242;2022-08-11T06:47:50;5.95;;;4.45;;
13147;SDS011;6639;50.956;4.242;2022-08-11T06:50:18;7.30;;;4.20;;
13147;SDS011;6639;50.956;4.242;2022-08-11T06:53:05;5.40;;;4.30;;
13147;SDS011;6639;50.956;4.242;2022-08-11T06:55:34;8.52;;;4.72;;
13147;SDS011;6639;50.956;4.242;2022-08-11T06:58:24;7.00;;;4.57;;
13147;SDS011;6639;50.956;4.242;2022-08-11T07:01:12;6.28;;;4.35;;
13147;SDS011;6639;50.956;4.242;2022-08-11T07:03:42;12.68;;;4.63;;
13147;SDS011;6639;50.956;4.242;2022-08-11T07:06:17;5.05;;;4.30;;
13147;SDS011;6639;50.956;4.242;2022-08-11T07:15:30;5.32;;;4.93;;
13147;SDS011;6639;50.956;4.242;2022-08-11T07:18:08;8.02;;;5.18;;
13147;SDS011;6639;50.956;4.242;2022-08-11T07:21:04;5.50;;;3.88;;
13147;SDS011;6639;50.956;4.242;2022-08-11T07:23:53;5.30;;;4.80;;
13147;SDS011;6639;50.956;4.242;2022-08-11T07:26:39;4.55;;;3.88;;
13147;SDS011;6639;50.956;4.242;2022-08-11T07:29:30;5.40;;;3.92;;
13147;SDS011;6639;50.956;4.242;2022-08-11T07:31:59;5.93;;;4.05;;
13147;SDS011;6639;50.956;4.242;2022-08-11T07:34:39;6.68;;;3.97;;
13147;SDS011;6639;50.956;4.242;2022-08-11T07:37:11;5.15;;;4.50;;
13147;SDS011;6639;50.956;4.242;2022-08-11T07:39:42;5.80;;;4.00;;
13147;SDS011;6639;50.956;4.242;2022-08-11T07:42:10;6.00;;;3.95;;
13147;SDS011;6639;50.956;4.242;2022-08-11T07:44:39;4.00;;;3.70;;
13147;SDS011;6639;50.956;4.242;2022-08-11T07:47:23;6.68;;;3.83;;
13147;SDS011;6639;50.956;4.242;2022-08-11T07:50:09;7.25;;;4.15;;
13147;SDS011;6639;50.956;4.242;2022-08-11T07:52:54;3.75;;;3.45;;
13147;SDS011;6639;50.956;4.242;2022-08-11T07:55:22;5.43;;;3.50;;
13147;SDS011;6639;50.956;4.242;2022-08-11T07:57:52;4.32;;;3.40;;
13147;SDS011;6639;50.956;4.242;2022-08-11T08:00:37;7.28;;;3.33;;
13147;SDS011;6639;50.956;4.242;2022-08-11T08:03:27;5.13;;;2.90;;
13147;SDS011;6639;50.956;4.242;2022-08-11T08:06:13;4.40;;;3.00;;
13147;SDS011;6639;50.956;4.242;2022-08-11T08:08:59;5.47;;;3.20;;
13147;SDS011;6639;50.956;4.242;2022-08-11T08:11:44;4.47;;;3.03;;
13147;SDS011;6639;50.956;4.242;2022-08-11T08:14:30;3.33;;;3.13;;
13147;SDS011;6639;50.956;4.242;2022-08-11T08:17:15;4.55;;;3.22;;
13147;SDS011;6639;50.956;4.242;2022-08-11T08:20:01;3.65;;;3.17;;
13147;SDS011;6639;50.956;4.242;2022-08-11T08:22:31;5.90;;;2.88;;
13147;SDS011;6639;50.956;4.242;2022-08-11T08:24:59;4.72;;;2.65;;
13147;SDS011;6639;50.956;4.242;2022-08-11T08:27:26;4.15;;;2.70;;
13147;SDS011;6639;50.956;4.242;2022-08-11T08:29:53;3.72;;;3.08;;
13147;SDS011;6639;50.956;4.242;2022-08-11T08:32:40;6.07;;;2.70;;
13147;SDS011;6639;50.956;4.242;2022-08-11T08:35:10;5.50;;;2.90;;
13147;SDS011;6639;50.956;4.242;2022-08-11T08:37:37;5.32;;;3.20;;
13147;SDS011;6639;50.956;4.242;2022-08-11T08:40:05;3.92;;;2.70;;
13147;SDS011;6639;50.956;4.242;2022-08-11T08:42:36;4.80;;;2.70;;
13147;SDS011;6639;50.956;4.242;2022-08-11T08:45:08;3.00;;;2.50;;
13147;SDS011;6639;50.956;4.242;2022-08-11T08:47:40;2.63;;;2.42;;
13147;SDS011;6639;50.956;4.242;2022-08-11T08:50:09;3.40;;;3.10;;
13147;SDS011;6639;50.956;4.242;2022-08-11T08:52:41;5.35;;;3.08;;
13147;SDS011;6639;50.956;4.242;2022-08-11T08:55:14;4.65;;;2.50;;
13147;SDS011;6639;50.956;4.242;2022-08-11T08:57:44;3.80;;;3.05;;
13147;SDS011;6639;50.956;4.242;2022-08-11T09:00:14;4.68;;;2.33;;
13147;SDS011;6639;50.956;4.242;2022-08-11T09:02:41;3.58;;;3.22;;
13147;SDS011;6639;50.956;4.242;2022-08-11T09:05:09;4.85;;;2.90;;
13147;SDS011;6639;50.956;4.242;2022-08-11T09:07:38;3.80;;;2.90;;
13147;SDS011;6639;50.956;4.242;2022-08-11T09:10:06;5.25;;;2.95;;
13147;SDS011;6639;50.956;4.242;2022-08-11T09:12:34;2.70;;;2.50;;
13147;SDS011;6639;50.956;4.242;2022-08-11T09:15:04;5.63;;;2.80;;
13147;SDS011;6639;50.956;4.242;2022-08-11T09:17:34;4.00;;;2.20;;
13147;SDS011;6639;50.956;4.242;2022-08-11T09:20:04;4.18;;;2.42;;
13147;SDS011;6639;50.956;4.242;2022-08-11T09:22:35;2.78;;;2.55;;
13147;SDS011;6639;50.956;4.242;2022-08-11T09:25:21;4.35;;;2.88;;
13147;SDS011;6639;50.956;4.242;2022-08-11T09:28:09;5.15;;;2.65;;
13147;SDS011;6639;50.956;4.242;2022-08-11T09:30:39;2.95;;;2.50;;
13147;SDS011;6639;50.956;4.242;2022-08-11T09:33:08;3.45;;;2.78;;
13147;SDS011;6639;50.956;4.242;2022-08-11T09:35:37;3.05;;;2.72;;
13147;SDS011;6639;50.956;4.242;2022-08-11T09:38:10;2.92;;;2.72;;
13147;SDS011;6639;50.956;4.242;2022-08-11T09:40:58;3.17;;;2.70;;
13147;SDS011;6639;50.956;4.242;2022-08-11T09:43:29;4.53;;;2.58;;
13147;SDS011;6639;50.956;4.242;2022-08-11T09:46:14;4.38;;;2.45;;
13147;SDS011;6639;50.956;4.242;2022-08-11T09:48:43;5.85;;;2.97;;
13147;SDS011;6639;50.956;4.242;2022-08-11T09:51:11;5.07;;;3.05;;
13147;SDS011;6639;50.956;4.242;2022-08-11T09:53:41;3.40;;;2.80;;
13147;SDS011;6639;50.956;4.242;2022-08-11T09:56:11;4.28;;;3.20;;
13147;SDS011;6639;50.956;4.242;2022-08-11T09:58:58;11.98;;;2.85;;
13147;SDS011;6639;50.956;4.242;2022-08-11T10:01:29;4.80;;;3.65;;
13147;SDS011;6639;50.956;4.242;2022-08-11T10:03:59;6.78;;;2.85;;
13147;SDS011;6639;50.956;4.242;2022-08-11T10:06:35;6.63;;;3.55;;
13147;SDS011;6639;50.956;4.242;2022-08-11T10:09:23;3.22;;;2.70;;
13147;SDS011;6639;50.956;4.242;2022-08-11T10:11:52;5.20;;;2.95;;
13147;SDS011;6639;50.956;4.242;2022-08-11T10:14:22;3.88;;;2.50;;
13147;SDS011;6639;50.956;4.242;2022-08-11T10:17:08;3.60;;;2.88;;
13147;SDS011;6639;50.956;4.242;2022-08-11T10:19:35;4.35;;;2.80;;
13147;SDS011;6639;50.956;4.242;2022-08-11T10:22:03;3.38;;;2.95;;
13147;SDS011;6639;50.956;4.242;2022-08-11T10:24:50;6.22;;;2.70;;
13147;SDS011;6639;50.956;4.242;2022-08-11T10:27:35;4.80;;;2.95;;
13147;SDS011;6639;50.956;4.242;2022-08-11T10:30:05;2.95;;;2.75;;
13147;SDS011;6639;50.956;4.242;2022-08-11T10:32:50;5.95;;;2.75;;
13147;SDS011;6639;50.956;4.242;2022-08-11T10:35:34;4.00;;;2.65;;
13147;SDS011;6639;50.956;4.242;2022-08-11T10:38:02;3.75;;;2.70;;
13147;SDS011;6639;50.956;4.242;2022-08-11T10:40:31;3.30;;;2.75;;
13147;SDS011;6639;50.956;4.242;2022-08-11T10:42:59;4.97;;;2.88;;
13147;SDS011;6639;50.956;4.242;2022-08-11T10:45:27;4.53;;;2.30;;
13147;SDS011;6639;50.956;4.242;2022-08-11T10:48:13;3.25;;;2.40;;
13147;SDS011;6639;50.956;4.242;2022-08-11T10:50:44;3.63;;;2.92;;
13147;SDS011;6639;50.956;4.242;2022-08-11T10:53:45;3.50;;;3.20;;
13147;SDS011;6639;50.956;4.242;2022-08-11T10:56:35;4.20;;;2.45;;
13147;SDS011;6639;50.956;4.242;2022-08-11T10:59:21;3.97;;;2.53;;
13147;SDS011;6639;50.956;4.242;2022-08-11T11:01:49;3.35;;;2.75;;
13147;SDS011;6639;50.956;4.242;2022-08-11T11:04:20;7.38;;;2.63;;
13147;SDS011;6639;50.956;4.242;2022-08-11T11:06:54;3.22;;;2.83;;
13147;SDS011;6639;50.956;4.242;2022-08-11T11:09:28;8.07;;;2.70;;
13147;SDS011;6639;50.956;4.242;2022-08-11T11:11:59;7.53;;;2.50;;
13147;SDS011;6639;50.956;4.242;2022-08-11T11:14:50;2.88;;;2.67;;
13147;SDS011;6639;50.956;4.242;2022-08-11T11:17:36;4.00;;;2.75;;
13147;SDS011;6639;50.956;4.242;2022-08-11T11:20:21;4.18;;;2.72;;
13147;SDS011;6639;50.956;4.242;2022-08-11T11:22:52;3.60;;;2.80;;
13147;SDS011;6639;50.956;4.242;2022-08-11T11:25:25;6.20;;;2.65;;
13147;SDS011;6639;50.956;4.242;2022-08-11T11:28:18;3.05;;;2.45;;
13147;SDS011;6639;50.956;4.242;2022-08-11T11:31:05;4.47;;;3.33;;
13147;SDS011;6639;50.956;4.242;2022-08-11T11:33:47;2.85;;;2.65;;
13147;SDS011;6639;50.956;4.242;2022-08-11T11:36:27;3.60;;;2.75;;
13147;SDS011;6639;50.956;4.242;2022-08-11T11:38:59;3.60;;;2.53;;
13147;SDS011;6639;50.956;4.242;2022-08-11T11:41:27;4.05;;;2.67;;
13147;SDS011;6639;50.956;4.242;2022-08-11T11:43:55;2.95;;;2.70;;
13147;SDS011;6639;50.956;4.242;2022-08-11T11:46:23;3.40;;;2.40;;
13147;SDS011;6639;50.956;4.242;2022-08-11T11:48:52;8.00;;;2.78;;
13147;SDS011;6639;50.956;4.242;2022-08-11T11:51:20;3.13;;;2.53;;
13147;SDS011;6639;50.956;4.242;2022-08-11T11:53:48;3.97;;;2.75;;
13147;SDS011;6639;50.956;4.242;2022-08-11T11:56:16;2.72;;;2.53;;
13147;SDS011;6639;50.956;4.242;2022-08-11T11:58:44;3.72;;;2.47;;
13147;SDS011;6639;50.956;4.242;2022-08-11T12:01:32;5.57;;;2.33;;
13147;SDS011;6639;50.956;4.242;2022-08-11T12:04:00;2.75;;;2.45;;
13147;SDS011;6639;50.956;4.242;2022-08-11T12:06:30;3.28;;;2.72;;
13147;SDS011;6639;50.956;4.242;2022-08-11T12:08:58;3.15;;;2.78;;
13147;SDS011;6639;50.956;4.242;2022-08-11T12:11:26;2.38;;;2.17;;
13147;SDS011;6639;50.956;4.242;2022-08-11T12:14:14;2.40;;;2.30;;
13147;SDS011;6639;50.956;4.242;2022-08-11T12:16:45;7.97;;;2.78;;
13147;SDS011;6639;50.956;4.242;2022-08-11T12:19:14;3.85;;;2.58;;
13147;SDS011;6639;50.956;4.242;2022-08-11T12:21:42;2.53;;;2.20;;
13147;SDS011;6639;50.956;4.242;2022-08-11T12:24:24;2.72;;;2.53;;
13147;SDS011;6639;50.956;4.242;2022-08-11T12:27:10;3.00;;;2.80;;
13147;SDS011;6639;50.956;4.242;2022-08-11T12:29:47;3.65;;;2.90;;
13147;SDS011;6639;50.956;4.242;2022-08-11T12:32:17;2.90;;;2.22;;
13147;SDS011;6639;50.956;4.242;2022-08-11T12:34:46;3.35;;;2.70;;
13147;SDS011;6639;50.956;4.242;2022-08-11T12:37:13;5.97;;;2.78;;
13147;SDS011;6639;50.956;4.242;2022-08-11T12:39:47;8.65;;;2.92;;
13147;SDS011;6639;50.956;4.242;2022-08-11T12:42:35;2.60;;;2.50;;
13147;SDS011;6639;50.956;4.242;2022-08-11T12:45:21;2.50;;;2.30;;
13147;SDS011;6639;50.956;4.242;2022-08-11T12:48:06;3.70;;;2.40;;
13147;SDS011;6639;50.956;4.242;2022-08-11T12:50:55;2.78;;;2.35;;
13147;SDS011;6639;50.956;4.242;2022-08-11T12:53:45;3.13;;;2.70;;
13147;SDS011;6639;50.956;4.242;2022-08-11T12:56:19;6.75;;;2.38;;
13147;SDS011;6639;50.956;4.242;2022-08-11T12:59:04;4.20;;;2.83;;
13147;SDS011;6639;50.956;4.242;2022-08-11T13:01:51;2.80;;;2.45;;
13147;SDS011;6639;50.956;4.242;2022-08-11T13:04:37;3.25;;;2.28;;
13147;SDS011;6639;50.956;4.242;2022-08-11T13:07:24;2.95;;;2.53;;
13147;SDS011;6639;50.956;4.242;2022-08-11T13:09:52;5.22;;;2.60;;
13147;SDS011;6639;50.956;4.242;2022-08-11T13:12:21;4.47;;;2.92;;
13147;SDS011;6639;50.956;4.242;2022-08-11T13:15:07;2.22;;;2.13;;
13147;SDS011;6639;50.956;4.242;2022-08-11T13:17:36;4.00;;;2.50;;
13147;SDS011;6639;50.956;4.242;2022-08-11T13:20:06;2.22;;;2.03;;
13147;SDS011;6639;50.956;4.242;2022-08-11T13:22:36;3.50;;;2.45;;
13147;SDS011;6639;50.956;4.242;2022-08-11T13:25:04;2.30;;;2.10;;
13147;SDS011;6639;50.956;4.242;2022-08-11T13:27:32;2.33;;;1.98;;
13147;SDS011;6639;50.956;4.242;2022-08-11T13:30:00;1.92;;;1.83;;
13147;SDS011;6639;50.956;4.242;2022-08-11T13:32:45;2.05;;;1.92;;
13147;SDS011;6639;50.956;4.242;2022-08-11T13:35:14;4.47;;;1.85;;
13147;SDS011;6639;50.956;4.242;2022-08-11T13:37:43;1.80;;;1.70;;
13147;SDS011;6639;50.956;4.242;2022-08-11T13:40:12;2.03;;;1.83;;
13147;SDS011;6639;50.956;4.242;2022-08-11T13:42:42;2.28;;;1.83;;
13147;SDS011;6639;50.956;4.242;2022-08-11T13:45:10;2.90;;;1.90;;
13147;SDS011;6639;50.956;4.242;2022-08-11T13:47:37;2.60;;;2.38;;
13147;SDS011;6639;50.956;4.242;2022-08-11T13:50:05;1.90;;;1.80;;
13147;SDS011;6639;50.956;4.242;2022-08-11T13:52:35;1.83;;;1.73;;
13147;SDS011;6639;50.956;4.242;2022-08-11T13:55:04;4.28;;;2.20;;
13147;SDS011;6639;50.956;4.242;2022-08-11T13:57:32;2.90;;;1.90;;
13147;SDS011;6639;50.956;4.242;2022-08-11T14:00:00;3.38;;;2.00;;
13147;SDS011;6639;50.956;4.242;2022-08-11T14:02:39;2.35;;;2.10;;
13147;SDS011;6639;50.956;4.242;2022-08-11T14:05:09;2.40;;;2.10;;
13147;SDS011;6639;50.956;4.242;2022-08-11T14:07:45;2.60;;;2.17;;
13147;SDS011;6639;50.956;4.242;2022-08-11T14:10:15;3.40;;;1.98;;
13147;SDS011;6639;50.956;4.242;2022-08-11T14:12:45;2.75;;;2.03;;
13147;SDS011;6639;50.956;4.242;2022-08-11T14:15:37;3.33;;;2.25;;
13147;SDS011;6639;50.956;4.242;2022-08-11T14:18:10;2.38;;;1.88;;
13147;SDS011;6639;50.956;4.242;2022-08-11T14:20:43;2.67;;;1.90;;
13147;SDS011;6639;50.956;4.242;2022-08-11T14:23:34;3.92;;;2.00;;
13147;SDS011;6639;50.956;4.242;2022-08-11T14:26:04;3.45;;;2.10;;
13147;SDS011;6639;50.956;4.242;2022-08-11T14:28:51;4.00;;;2.00;;
13147;SDS011;6639;50.956;4.242;2022-08-11T14:31:20;3.40;;;2.13;;
13147;SDS011;6639;50.956;4.242;2022-08-11T14:33:49;5.68;;;2.40;;
13147;SDS011;6639;50.956;4.242;2022-08-11T14:36:18;3.25;;;2.20;;
13147;SDS011;6639;50.956;4.242;2022-08-11T14:38:47;4.47;;;1.92;;
13147;SDS011;6639;50.956;4.242;2022-08-11T14:41:17;3.50;;;1.70;;
13147;SDS011;6639;50.956;4.242;2022-08-11T14:44:02;1.83;;;1.73;;
13147;SDS011;6639;50.956;4.242;2022-08-11T14:46:48;2.90;;;1.92;;
13147;SDS011;6639;50.956;4.242;2022-08-11T14:49:32;3.30;;;1.90;;
13147;SDS011;6639;50.956;4.242;2022-08-11T14:52:02;2.58;;;2.38;;
13147;SDS011;6639;50.956;4.242;2022-08-11T14:54:33;2.33;;;2.05;;
13147;SDS011;6639;50.956;4.242;2022-08-11T14:57:19;2.00;;;1.77;;
13147;SDS011;6639;50.956;4.242;2022-08-11T14:59:48;2.20;;;2.10;;
13147;SDS011;6639;50.956;4.242;2022-08-11T15:02:17;2.30;;;2.10;;
13147;SDS011;6639;50.956;4.242;2022-08-11T15:05:02;2.28;;;2.10;;
13147;SDS011;6639;50.956;4.242;2022-08-11T15:07:31;3.65;;;1.80;;
13147;SDS011;6639;50.956;4.242;2022-08-11T15:10:00;3.88;;;2.50;;
13147;SDS011;6639;50.956;4.242;2022-08-11T15:12:29;2.83;;;2.10;;
13147;SDS011;6639;50.956;4.242;2022-08-11T15:14:57;2.50;;;2.30;;
13147;SDS011;6639;50.956;4.242;2022-08-11T15:17:42;2.55;;;1.88;;
13147;SDS011;6639;50.956;4.242;2022-08-11T15:20:12;3.35;;;2.05;;
13147;SDS011;6639;50.956;4.242;2022-08-11T15:22:59;10.50;;;2.75;;
13147;SDS011;6639;50.956;4.242;2022-08-11T15:25:47;3.85;;;2.33;;
13147;SDS011;6639;50.956;4.242;2022-08-11T15:28:16;4.15;;;2.33;;
13147;SDS011;6639;50.956;4.242;2022-08-11T15:31:02;2.67;;;2.47;;
13147;SDS011;6639;50.956;4.242;2022-08-11T15:34:02;4.30;;;2.83;;
13147;SDS011;6639;50.956;4.242;2022-08-11T15:36:49;2.45;;;2.22;;
13147;SDS011;6639;50.956;4.242;2022-08-11T15:39:44;5.22;;;2.47;;
13147;SDS011;6639;50.956;4.242;2022-08-11T15:42:29;4.20;;;2.40;;
13147;SDS011;6639;50.956;4.242;2022-08-11T15:45:16;3.78;;;2.28;;
13147;SDS011;6639;50.956;4.242;2022-08-11T15:48:05;4.00;;;2.17;;
13147;SDS011;6639;50.956;4.242;2022-08-11T15:50:36;2.60;;;2.40;;
13147;SDS011;6639;50.956;4.242;2022-08-11T15:53:08;2.85;;;2.65;;
13147;SDS011;6639;50.956;4.242;2022-08-11T15:55:37;2.75;;;2.50;;
13147;SDS011;6639;50.956;4.242;2022-08-11T15:58:07;3.38;;;2.83;;
13147;SDS011;6639;50.956;4.242;2022-08-11T16:00:54;3.80;;;2.47;;
13147;SDS011;6639;50.956;4.242;2022-08-11T16:03:41;4.43;;;2.38;;
13147;SDS011;6639;50.956;4.242;2022-08-11T16:06:31;3.15;;;2.50;;
13147;SDS011;6639;50.956;4.242;2022-08-11T16:09:00;2.83;;;2.47;;
13147;SDS011;6639;50.956;4.242;2022-08-11T16:11:30;2.60;;;2.40;;
13147;SDS011;6639;50.956;4.242;2022-08-11T16:14:00;4.75;;;2.55;;
13147;SDS011;6639;50.956;4.242;2022-08-11T16:16:47;3.88;;;2.75;;
13147;SDS011;6639;50.956;4.242;2022-08-11T16:19:17;3.53;;;2.53;;
13147;SDS011;6639;50.956;4.242;2022-08-11T16:21:45;7.30;;;2.80;;
13147;SDS011;6639;50.956;4.242;2022-08-11T16:24:14;5.47;;;2.90;;
13147;SDS011;6639;50.956;4.242;2022-08-11T16:26:44;6.35;;;3.00;;
13147;SDS011;6639;50.956;4.242;2022-08-11T16:29:13;2.30;;;2.10;;
13147;SDS011;6639;50.956;4.242;2022-08-11T16:31:41;3.08;;;2.42;;
13147;SDS011;6639;50.956;4.242;2022-08-11T16:34:30;7.25;;;2.80;;
13147;SDS011;6639;50.956;4.242;2022-08-11T16:37:16;4.90;;;2.78;;
13147;SDS011;6639;50.956;4.242;2022-08-11T16:40:02;2.55;;;2.35;;
13147;SDS011;6639;50.956;4.242;2022-08-11T16:42:30;3.85;;;2.53;;
13147;SDS011;6639;50.956;4.242;2022-08-11T16:45:17;5.70;;;2.40;;
13147;SDS011;6639;50.956;4.242;2022-08-11T16:48:02;3.15;;;2.33;;
13147;SDS011;6639;50.956;4.242;2022-08-11T16:50:33;3.17;;;2.60;;
13147;SDS011;6639;50.956;4.242;2022-08-11T16:53:01;5.20;;;2.40;;
13147;SDS011;6639;50.956;4.242;2022-08-11T16:55:28;4.40;;;2.55;;
13147;SDS011;6639;50.956;4.242;2022-08-11T16:57:59;4.28;;;2.28;;
13147;SDS011;6639;50.956;4.242;2022-08-11T17:00:45;5.00;;;2.38;;